createdAt,value
2023-11-17T00:00:59.706Z,5.95
2023-11-17T00:01:59.724Z,5.93
2023-11-17T00:02:59.863Z,5.89
2023-11-17T00:03:59.798Z,5.88
2023-11-17T00:04:59.689Z,5.88
2023-11-17T00:05:59.620Z,5.86
2023-11-17T00:06:59.657Z,5.85
2023-11-17T00:07:59.598Z,5.85
2023-11-17T00:08:59.589Z,5.85
2023-11-17T00:09:59.572Z,5.85
2023-11-17T00:10:59.561Z,5.85
2023-11-17T00:11:59.542Z,5.83
2023-11-17T00:12:59.565Z,5.85
2023-11-17T00:13:59.526Z,5.85
2023-11-17T00:14:59.507Z,5.82
2023-11-17T00:15:59.561Z,5.83
2023-11-17T00:16:59.560Z,5.81
2023-11-17T00:17:59.507Z,5.81
2023-11-17T00:18:59.549Z,5.82
2023-11-17T00:19:59.448Z,5.81
2023-11-17T00:20:59.425Z,5.82
2023-11-17T00:21:59.436Z,5.82
2023-11-17T00:22:59.393Z,5.77
2023-11-17T00:23:59.398Z,5.75
2023-11-17T00:24:59.416Z,5.73
2023-11-17T00:25:59.362Z,5.74
2023-11-17T00:26:59.348Z,5.73
2023-11-17T00:27:59.388Z,5.74
2023-11-17T00:28:59.317Z,5.77
2023-11-17T00:29:59.308Z,5.77
2023-11-17T00:30:59.308Z,5.75
2023-11-17T00:31:59.277Z,5.75
2023-11-17T00:32:59.298Z,5.77
2023-11-17T00:33:59.427Z,5.77
2023-11-17T00:34:59.368Z,5.74
2023-11-17T00:35:59.219Z,5.74
2023-11-17T00:36:59.251Z,5.75
2023-11-17T00:37:59.194Z,5.74
2023-11-17T00:38:59.185Z,5.75
2023-11-17T00:39:59.211Z,5.77
2023-11-17T00:40:59.163Z,5.78
2023-11-17T00:41:59.144Z,5.78
2023-11-17T00:42:59.176Z,5.77
2023-11-17T00:43:59.189Z,5.73
2023-11-17T00:44:59.155Z,5.74
2023-11-17T00:45:59.181Z,5.74
2023-11-17T00:46:59.385Z,5.75
2023-11-17T00:47:59.132Z,5.75
2023-11-17T00:48:59.100Z,5.75
2023-11-17T00:49:59.049Z,5.74
2023-11-17T00:50:59.029Z,5.73
2023-11-17T00:51:59.086Z,5.73
2023-11-17T00:52:59.003Z,5.71
2023-11-17T00:53:58.995Z,5.71
2023-11-17T00:54:59.014Z,5.71
2023-11-17T00:55:58.962Z,5.70
2023-11-17T00:56:58.952Z,5.70
2023-11-17T00:57:59.014Z,5.70
2023-11-17T00:58:58.939Z,5.71
2023-11-17T00:59:58.923Z,5.68
2023-11-17T01:00:59.014Z,5.68
2023-11-17T01:01:58.902Z,5.70
2023-11-17T01:02:58.975Z,5.71
2023-11-17T01:03:58.917Z,5.73
2023-11-17T01:04:58.846Z,5.71
2023-11-17T01:05:58.831Z,5.73
2023-11-17T01:06:58.833Z,5.73
2023-11-17T01:07:58.807Z,5.71
2023-11-17T01:08:58.822Z,5.71
2023-11-17T01:09:58.834Z,5.68
2023-11-17T01:10:58.768Z,5.68
2023-11-17T01:11:58.756Z,5.68
2023-11-17T01:12:58.783Z,5.68
2023-11-17T01:13:58.729Z,5.67
2023-11-17T01:14:58.718Z,5.68
2023-11-17T01:15:58.816Z,5.68
2023-11-17T01:16:58.712Z,5.67
2023-11-17T01:17:58.735Z,5.70
2023-11-17T01:18:58.684Z,5.68
2023-11-17T01:19:58.640Z,5.70
2023-11-17T01:20:58.641Z,5.70
2023-11-17T01:21:58.681Z,5.68
2023-11-17T01:22:58.610Z,5.70
2023-11-17T01:23:58.602Z,5.70
2023-11-17T01:24:58.596Z,5.70
2023-11-17T01:25:58.568Z,5.68
2023-11-17T01:26:58.576Z,5.68
2023-11-17T01:27:58.599Z,5.68
2023-11-17T01:28:58.545Z,5.70
2023-11-17T01:29:58.516Z,5.68
2023-11-17T01:30:58.572Z,5.68
2023-11-17T01:31:58.497Z,5.70
2023-11-17T01:32:58.576Z,5.70
2023-11-17T01:33:58.550Z,5.68
2023-11-17T01:34:58.482Z,5.70
2023-11-17T01:35:58.438Z,5.70
2023-11-17T01:36:58.479Z,5.70
2023-11-17T01:37:58.423Z,5.70
2023-11-17T01:38:58.403Z,5.70
2023-11-17T01:39:58.405Z,5.68
2023-11-17T01:40:58.376Z,5.68
2023-11-17T01:41:58.366Z,5.70
2023-11-17T01:42:58.395Z,5.70
2023-11-17T01:43:58.342Z,5.70
2023-11-17T01:44:58.320Z,5.70
2023-11-17T01:45:58.402Z,5.70
2023-11-17T01:46:58.358Z,5.70
2023-11-17T01:47:58.343Z,5.68
2023-11-17T01:48:58.319Z,5.68
2023-11-17T01:49:58.263Z,5.70
2023-11-17T01:50:58.243Z,5.68
2023-11-17T01:51:58.278Z,5.67
2023-11-17T01:52:58.219Z,5.68
2023-11-17T01:53:58.202Z,5.67
2023-11-17T01:54:58.232Z,5.70
2023-11-17T01:55:58.176Z,5.67
2023-11-17T01:56:58.181Z,5.68
2023-11-17T01:57:58.203Z,5.68
2023-11-17T01:58:58.142Z,5.71
2023-11-17T01:59:58.147Z,5.71
2023-11-17T02:00:58.136Z,5.71
2023-11-17T02:01:58.162Z,5.71
2023-11-17T02:02:58.195Z,5.70
2023-11-17T02:03:58.170Z,5.70
2023-11-17T02:04:58.078Z,5.71
2023-11-17T02:05:58.052Z,5.71
2023-11-17T02:06:58.066Z,5.73
2023-11-17T02:07:58.026Z,5.71
2023-11-17T02:08:58.044Z,5.71
2023-11-17T02:09:58.041Z,5.71
2023-11-17T02:10:58.016Z,5.71
2023-11-17T02:11:57.973Z,5.70
2023-11-17T02:12:57.997Z,5.70
2023-11-17T02:13:58.016Z,5.70
2023-11-17T02:14:57.963Z,5.68
2023-11-17T02:15:57.944Z,5.70
2023-11-17T02:16:57.975Z,5.70
2023-11-17T02:17:57.954Z,5.71
2023-11-17T02:18:57.954Z,5.71
2023-11-17T02:19:57.867Z,5.71
2023-11-17T02:20:57.855Z,5.71
2023-11-17T02:21:57.930Z,5.71
2023-11-17T02:22:57.839Z,5.71
2023-11-17T02:23:57.818Z,5.71
2023-11-17T02:24:57.875Z,5.73
2023-11-17T02:25:57.792Z,5.75
2023-11-17T02:26:57.782Z,5.75
2023-11-17T02:27:57.810Z,5.75
2023-11-17T02:28:57.778Z,5.77
2023-11-17T02:29:57.757Z,5.75
2023-11-17T02:30:58.061Z,5.77
2023-11-17T02:31:57.772Z,5.75
2023-11-17T02:32:57.719Z,5.75
2023-11-17T02:33:57.706Z,5.77
2023-11-17T02:34:57.696Z,5.75
2023-11-17T02:35:57.657Z,5.74
2023-11-17T02:36:57.666Z,5.74
2023-11-17T02:37:57.631Z,5.75
2023-11-17T02:38:57.723Z,5.74
2023-11-17T02:39:57.632Z,5.74
2023-11-17T02:40:57.686Z,5.73
2023-11-17T02:41:57.582Z,5.73
2023-11-17T02:42:57.583Z,5.74
2023-11-17T02:43:57.555Z,5.75
2023-11-17T02:44:57.556Z,5.77
2023-11-17T02:45:57.561Z,5.77
2023-11-17T02:46:57.578Z,5.77
2023-11-17T02:47:57.859Z,5.81
2023-11-17T02:48:57.534Z,5.78
2023-11-17T02:49:57.478Z,5.77
2023-11-17T02:50:57.466Z,5.78
2023-11-17T02:51:57.546Z,5.78
2023-11-17T02:52:57.529Z,5.78
2023-11-17T02:53:57.424Z,5.81
2023-11-17T02:54:57.479Z,5.81
2023-11-17T02:55:57.397Z,5.81
2023-11-17T02:56:57.393Z,5.82
2023-11-17T02:57:57.391Z,5.82
2023-11-17T02:58:57.379Z,5.81
2023-11-17T02:59:57.345Z,5.77
2023-11-17T03:00:57.361Z,5.78
2023-11-17T03:01:57.355Z,5.75
2023-11-17T03:02:57.381Z,5.77
2023-11-17T03:03:57.356Z,5.77
2023-11-17T03:04:57.298Z,5.78
2023-11-17T03:05:57.271Z,5.81
2023-11-17T03:06:57.263Z,5.82
2023-11-17T03:07:57.237Z,5.82
2023-11-17T03:08:57.231Z,5.83
2023-11-17T03:09:57.450Z,5.81
2023-11-17T03:10:57.204Z,5.83
2023-11-17T03:11:57.185Z,5.82
2023-11-17T03:12:57.223Z,5.81
2023-11-17T03:13:57.178Z,5.81
2023-11-17T03:14:57.165Z,5.82
2023-11-17T03:15:57.239Z,5.82
2023-11-17T03:16:57.203Z,5.83
2023-11-17T03:17:57.196Z,5.85
2023-11-17T03:18:57.176Z,5.86
2023-11-17T03:19:57.104Z,5.85
2023-11-17T03:20:57.098Z,5.86
2023-11-17T03:21:57.118Z,5.86
2023-11-17T03:22:57.069Z,5.83
2023-11-17T03:23:57.057Z,5.85
2023-11-17T03:24:57.113Z,5.82
2023-11-17T03:25:57.032Z,5.85
2023-11-17T03:26:57.020Z,5.85
2023-11-17T03:27:57.069Z,5.83
2023-11-17T03:28:57.003Z,5.83
2023-11-17T03:29:56.974Z,5.83
2023-11-17T03:30:57.085Z,5.85
2023-11-17T03:31:57.054Z,5.83
2023-11-17T03:32:57.029Z,5.83
2023-11-17T03:33:56.944Z,5.82
2023-11-17T03:34:56.915Z,5.82
2023-11-17T03:35:56.915Z,5.83
2023-11-17T03:36:56.931Z,5.85
2023-11-17T03:37:56.882Z,5.86
2023-11-17T03:38:56.860Z,5.86
2023-11-17T03:39:56.865Z,5.86
2023-11-17T03:40:56.850Z,5.89
2023-11-17T03:41:56.875Z,5.92
2023-11-17T03:42:56.895Z,5.91
2023-11-17T03:43:56.798Z,5.92
2023-11-17T03:44:56.784Z,5.92
2023-11-17T03:45:56.841Z,5.91
2023-11-17T03:46:56.961Z,5.91
2023-11-17T03:47:56.773Z,5.91
2023-11-17T03:48:56.764Z,5.92
2023-11-17T03:49:56.711Z,5.91
2023-11-17T04:03:32.383Z,5.91
2023-11-17T04:04:32.366Z,5.91
2023-11-17T04:05:32.312Z,5.91
2023-11-17T04:06:32.298Z,5.91
2023-11-17T04:07:32.335Z,5.88
2023-11-17T04:08:32.267Z,5.89
2023-11-17T04:09:32.269Z,5.89
2023-11-17T04:10:32.267Z,5.91
2023-11-17T04:11:32.240Z,5.91
2023-11-17T04:12:32.225Z,5.91
2023-11-17T04:13:32.380Z,5.92
2023-11-17T04:14:32.200Z,5.91
2023-11-17T04:15:32.209Z,5.89
2023-11-17T04:16:32.284Z,5.91
2023-11-17T04:17:32.346Z,5.92
2023-11-17T04:18:32.222Z,5.92
2023-11-17T04:19:32.234Z,5.91
2023-11-17T04:20:32.199Z,5.92
2023-11-17T04:21:32.185Z,5.93
2023-11-17T04:22:32.269Z,5.95
2023-11-17T04:23:32.077Z,5.95
2023-11-17T04:24:32.100Z,5.95
2023-11-17T04:25:32.086Z,5.95
2023-11-17T04:26:32.038Z,5.95
2023-11-17T04:27:32.042Z,5.95
2023-11-17T04:28:32.052Z,5.95
2023-11-17T04:29:31.999Z,5.95
2023-11-17T04:30:31.990Z,5.95
2023-11-17T04:31:31.997Z,5.92
2023-11-17T04:32:32.045Z,5.93
2023-11-17T04:33:32.007Z,5.93
2023-11-17T04:34:31.985Z,5.92
2023-11-17T04:35:31.925Z,5.92
2023-11-17T04:36:31.919Z,5.95
2023-11-17T04:37:31.989Z,6.00
2023-11-17T04:38:31.902Z,6.01
2023-11-17T04:39:31.864Z,6.03
2023-11-17T04:40:31.895Z,6.03
2023-11-17T04:41:31.836Z,6.03
2023-11-17T04:42:31.836Z,6.01
2023-11-17T04:43:31.819Z,5.98
2023-11-17T04:44:31.896Z,6.00
2023-11-17T04:45:31.808Z,5.98
2023-11-17T04:46:31.872Z,6.00
2023-11-17T04:47:31.782Z,6.00
2023-11-17T04:48:31.783Z,6.00
2023-11-17T04:49:31.805Z,5.98
2023-11-17T04:50:31.731Z,5.98
2023-11-17T04:51:31.729Z,5.96
2023-11-17T04:52:31.892Z,5.96
2023-11-17T04:53:31.694Z,5.96
2023-11-17T04:54:31.684Z,5.95
2023-11-17T04:55:31.721Z,5.96
2023-11-17T04:56:31.694Z,5.96
2023-11-17T04:57:31.637Z,5.98
2023-11-17T04:58:31.672Z,5.98
2023-11-17T04:59:31.609Z,6.00
2023-11-17T05:00:31.613Z,6.00
2023-11-17T05:01:31.685Z,6.00
2023-11-17T05:02:31.604Z,5.98
2023-11-17T05:03:31.662Z,6.00
2023-11-17T05:04:31.612Z,6.00
2023-11-17T05:05:31.550Z,5.98
2023-11-17T05:06:31.517Z,5.98
2023-11-17T05:07:31.567Z,5.95
2023-11-17T05:08:31.501Z,5.96
2023-11-17T05:09:31.505Z,5.96
2023-11-17T05:10:31.505Z,5.95
2023-11-17T05:11:31.445Z,5.95
2023-11-17T05:12:31.442Z,5.95
2023-11-17T05:13:31.486Z,5.96
2023-11-17T05:14:31.421Z,5.93
2023-11-17T05:15:33.560Z,5.92
2023-11-17T05:16:31.472Z,5.91
2023-11-17T05:17:31.422Z,5.93
2023-11-17T05:18:31.379Z,5.93
2023-11-17T05:19:31.412Z,5.93
2023-11-17T05:20:31.356Z,5.93
2023-11-17T05:21:31.340Z,5.93
2023-11-17T05:22:31.339Z,5.95
2023-11-17T05:23:31.306Z,5.95
2023-11-17T05:24:31.297Z,5.96
2023-11-17T05:25:31.348Z,5.95
2023-11-17T05:26:31.280Z,5.95
2023-11-17T05:27:31.235Z,5.96
2023-11-17T05:28:32.309Z,5.96
2023-11-17T05:29:31.248Z,5.96
2023-11-17T05:30:31.241Z,5.96
2023-11-17T05:31:31.235Z,5.95
2023-11-17T05:32:31.196Z,5.93
2023-11-17T05:33:31.169Z,5.95
2023-11-17T05:34:31.216Z,5.95
2023-11-17T05:35:31.142Z,5.98
2023-11-17T05:36:31.167Z,5.96
2023-11-17T05:37:31.154Z,5.98
2023-11-17T05:38:31.114Z,5.96
2023-11-17T05:39:31.092Z,5.96
2023-11-17T05:40:31.105Z,5.98
2023-11-17T05:41:31.095Z,5.95
2023-11-17T05:42:31.045Z,5.96
2023-11-17T05:43:31.110Z,5.95
2023-11-17T05:44:31.027Z,5.95
2023-11-17T05:45:31.029Z,5.95
2023-11-17T05:46:31.076Z,5.96
2023-11-17T05:47:31.088Z,5.96
2023-11-17T05:48:30.986Z,5.95
2023-11-17T05:49:31.030Z,5.96
2023-11-17T05:50:31.119Z,5.96
2023-11-17T05:51:30.946Z,5.98
2023-11-17T05:52:30.981Z,6.00
2023-11-17T05:53:30.919Z,6.00
2023-11-17T05:54:30.905Z,6.00
2023-11-17T05:55:30.909Z,6.01
2023-11-17T05:56:30.881Z,6.00
2023-11-17T05:57:30.875Z,6.00
2023-11-17T05:58:30.858Z,6.01
2023-11-17T05:59:30.824Z,6.01
2023-11-17T06:00:30.821Z,6.01
2023-11-17T06:01:30.860Z,6.00
2023-11-17T06:02:30.857Z,6.00
2023-11-17T06:03:30.889Z,6.01
2023-11-17T06:04:30.828Z,6.01
2023-11-17T06:05:30.780Z,6.01
2023-11-17T06:06:30.745Z,6.03
2023-11-17T06:07:30.775Z,6.03
2023-11-17T06:08:30.705Z,6.03
2023-11-17T06:09:30.698Z,6.03
2023-11-17T06:10:30.730Z,6.01
2023-11-17T06:11:30.688Z,6.00
2023-11-17T06:12:30.663Z,6.00
2023-11-17T06:13:30.680Z,5.96
2023-11-17T06:14:30.651Z,5.96
2023-11-17T06:15:30.638Z,5.96
2023-11-17T06:16:30.651Z,5.98
2023-11-17T06:17:30.656Z,5.95
2023-11-17T06:18:30.589Z,5.93
2023-11-17T06:19:30.598Z,5.96
2023-11-17T06:20:30.573Z,5.93
2023-11-17T06:21:30.542Z,5.95
2023-11-17T06:22:30.550Z,5.95
2023-11-17T06:23:30.522Z,5.95
2023-11-17T06:24:30.533Z,5.93
2023-11-17T06:25:30.545Z,5.93
2023-11-17T06:26:30.499Z,5.95
2023-11-17T06:27:30.471Z,5.95
2023-11-17T06:28:30.524Z,5.96
2023-11-17T06:29:30.452Z,5.96
2023-11-17T06:30:30.440Z,5.95
2023-11-17T06:31:30.622Z,5.95
2023-11-17T06:32:30.476Z,5.95
2023-11-17T06:33:30.415Z,5.95
2023-11-17T06:34:30.421Z,5.92
2023-11-17T06:35:30.374Z,5.93
2023-11-17T06:36:30.353Z,5.92
2023-11-17T06:37:30.388Z,5.92
2023-11-17T06:38:30.397Z,5.89
2023-11-17T06:39:30.328Z,5.88
2023-11-17T06:40:30.380Z,5.88
2023-11-17T06:41:30.293Z,5.89
2023-11-17T06:42:30.340Z,5.89
2023-11-17T06:43:30.382Z,5.88
2023-11-17T06:44:30.248Z,5.88
2023-11-17T06:45:30.273Z,5.86
2023-11-17T06:46:30.310Z,5.86
2023-11-17T06:47:30.240Z,5.88
2023-11-17T06:48:30.202Z,5.88
2023-11-17T06:49:30.217Z,5.86
2023-11-17T06:50:30.186Z,5.86
2023-11-17T06:51:30.225Z,5.83
2023-11-17T06:52:30.182Z,5.82
2023-11-17T06:53:30.150Z,5.82
2023-11-17T06:54:30.136Z,5.81
2023-11-17T06:55:30.153Z,5.81
2023-11-17T06:56:30.107Z,5.82
2023-11-17T06:57:30.108Z,5.82
2023-11-17T06:58:30.139Z,5.81
2023-11-17T06:59:30.073Z,5.78
2023-11-17T07:00:30.047Z,5.78
2023-11-17T07:01:30.085Z,5.78
2023-11-17T07:02:30.293Z,5.77
2023-11-17T07:03:30.057Z,5.75
2023-11-17T07:04:30.015Z,5.74
2023-11-17T07:05:30.013Z,5.73
2023-11-17T07:06:29.960Z,5.70
2023-11-17T07:07:30.011Z,5.70
2023-11-17T07:08:29.951Z,5.71
2023-11-17T07:09:29.934Z,5.74
2023-11-17T07:10:29.964Z,5.74
2023-11-17T07:11:29.916Z,5.74
2023-11-17T07:12:29.928Z,5.71
2023-11-17T07:13:29.907Z,5.70
2023-11-17T07:14:29.871Z,5.68
2023-11-17T07:15:29.889Z,5.66
2023-11-17T07:16:41.072Z,5.67
2023-11-17T07:17:30.885Z,5.63
2023-11-17T07:18:29.864Z,5.60
2023-11-17T07:19:29.818Z,5.60
2023-11-17T07:20:29.808Z,5.60
2023-11-17T07:21:29.936Z,5.63
2023-11-17T07:22:29.775Z,5.59
2023-11-17T07:23:29.752Z,5.59
2023-11-17T07:24:29.755Z,5.59
2023-11-17T07:25:29.808Z,5.60
2023-11-17T07:26:29.723Z,5.63
2023-11-17T07:27:29.743Z,5.63
2023-11-17T07:28:29.714Z,5.63
2023-11-17T07:29:29.680Z,5.66
2023-11-17T07:30:29.708Z,5.66
2023-11-17T07:31:29.716Z,5.66
2023-11-17T07:32:29.663Z,5.64
2023-11-17T07:33:29.643Z,5.63
2023-11-17T07:34:29.652Z,5.59
2023-11-17T07:35:29.603Z,5.63
2023-11-17T07:36:29.583Z,5.64
2023-11-17T07:37:29.630Z,5.66
2023-11-17T07:38:29.611Z,5.64
2023-11-17T07:39:29.549Z,5.60
2023-11-17T07:40:31.186Z,5.63
2023-11-17T07:41:29.530Z,5.57
2023-11-17T07:42:29.514Z,5.56
2023-11-17T07:43:29.540Z,5.57
2023-11-17T07:44:29.499Z,5.59
2023-11-17T07:45:29.505Z,5.57
2023-11-17T07:46:29.541Z,5.59
2023-11-17T07:47:29.570Z,5.59
2023-11-17T07:48:29.432Z,5.56
2023-11-17T07:49:29.486Z,5.55
2023-11-17T07:50:29.430Z,5.55
2023-11-17T07:51:29.407Z,5.56
2023-11-17T07:52:29.460Z,5.56
2023-11-17T07:53:29.377Z,5.56
2023-11-17T07:54:29.368Z,5.57
2023-11-17T07:55:29.385Z,5.57
2023-11-17T07:56:29.323Z,5.57
2023-11-17T07:57:29.321Z,5.56
2023-11-17T07:58:29.340Z,5.55
2023-11-17T07:59:29.305Z,5.55
2023-11-17T08:00:29.658Z,5.53
2023-11-17T08:01:29.305Z,5.53
2023-11-17T08:02:29.266Z,5.57
2023-11-17T08:03:29.359Z,5.60
2023-11-17T08:04:29.339Z,5.63
2023-11-17T08:05:29.266Z,5.63
2023-11-17T08:06:29.201Z,5.63
2023-11-17T08:07:29.268Z,5.60
2023-11-17T08:08:29.216Z,5.59
2023-11-17T08:09:29.196Z,5.59
2023-11-17T08:10:29.169Z,5.59
2023-11-17T08:11:29.137Z,5.60
2023-11-17T08:12:29.140Z,5.64
2023-11-17T08:13:29.168Z,5.60
2023-11-17T08:14:29.099Z,5.57
2023-11-17T08:15:29.104Z,5.57
2023-11-17T08:16:29.226Z,5.59
2023-11-17T08:17:29.102Z,5.60
2023-11-17T08:18:29.044Z,5.63
2023-11-17T08:19:29.104Z,5.64
2023-11-17T08:20:29.020Z,5.64
2023-11-17T08:21:29.025Z,5.63
2023-11-17T08:22:29.073Z,5.64
2023-11-17T08:23:28.994Z,5.64
2023-11-17T08:24:28.981Z,5.67
2023-11-17T08:25:28.988Z,5.64
2023-11-17T08:26:28.933Z,5.66
2023-11-17T08:27:28.923Z,5.67
2023-11-17T08:28:28.940Z,5.67
2023-11-17T08:29:28.919Z,5.66
2023-11-17T08:30:35.786Z,5.68
2023-11-17T08:31:29.976Z,5.70
2023-11-17T08:32:28.925Z,5.68
2023-11-17T08:33:28.857Z,5.71
2023-11-17T08:34:28.910Z,5.71
2023-11-17T08:35:28.877Z,5.75
2023-11-17T08:36:28.813Z,5.78
2023-11-17T08:37:28.946Z,5.78
2023-11-17T08:38:28.814Z,5.78
2023-11-17T08:39:29.193Z,5.81
2023-11-17T08:40:28.786Z,5.88
2023-11-17T08:41:28.770Z,5.98
2023-11-17T08:42:28.744Z,6.16
2023-11-17T08:43:28.787Z,6.41
2023-11-17T08:44:29.112Z,6.66
2023-11-17T08:45:28.733Z,6.73
2023-11-17T08:46:28.743Z,6.76
2023-11-17T08:47:28.746Z,6.80
2023-11-17T08:48:28.686Z,6.87
2023-11-17T08:49:28.749Z,6.86
2023-11-17T08:50:28.673Z,6.81
2023-11-17T08:51:28.635Z,6.83
2023-11-17T08:52:28.655Z,6.87
2023-11-17T08:53:28.608Z,6.87
2023-11-17T08:54:28.596Z,6.84
2023-11-17T08:55:28.691Z,6.76
2023-11-17T08:56:28.584Z,6.68
2023-11-17T08:57:28.551Z,6.63
2023-11-17T08:58:28.586Z,6.68
2023-11-17T08:59:28.532Z,6.71
2023-11-17T09:00:28.519Z,6.71
2023-11-17T09:01:28.585Z,6.65
2023-11-17T09:02:28.562Z,6.61
2023-11-17T09:03:28.541Z,6.59
2023-11-17T09:04:28.490Z,6.68
2023-11-17T09:05:28.450Z,6.73
2023-11-17T09:06:28.434Z,6.80
2023-11-17T09:07:30.758Z,6.90
2023-11-17T09:08:28.398Z,6.79
2023-11-17T09:09:30.898Z,6.73
2023-11-17T09:10:28.432Z,6.76
2023-11-17T09:11:28.375Z,6.80
2023-11-17T09:12:28.362Z,6.91
2023-11-17T09:13:28.355Z,7.01
2023-11-17T09:14:32.265Z,7.04
2023-11-17T09:15:28.353Z,7.12
2023-11-17T09:16:36.944Z,7.15
2023-11-17T09:17:29.378Z,7.22
2023-11-17T09:18:28.298Z,7.23
2023-11-17T09:19:28.282Z,7.27
2023-11-17T09:20:28.267Z,7.24
2023-11-17T09:21:28.269Z,7.27
2023-11-17T09:22:28.255Z,7.31
2023-11-17T09:23:28.216Z,7.34
2023-11-17T09:24:28.226Z,7.32
2023-11-17T09:25:28.608Z,7.37
2023-11-17T09:26:28.204Z,7.38
2023-11-17T09:27:28.163Z,7.31
2023-11-17T09:28:28.225Z,7.17
2023-11-17T09:29:28.141Z,7.05
2023-11-17T09:30:28.135Z,7.01
2023-11-17T09:31:28.118Z,6.97
2023-11-17T09:32:28.174Z,6.94
2023-11-17T09:33:28.327Z,6.89
2023-11-17T09:34:28.146Z,6.81
2023-11-17T09:35:28.421Z,6.77
2023-11-17T09:36:28.075Z,6.76
2023-11-17T09:37:28.142Z,6.79
2023-11-17T09:38:35.262Z,6.87
2023-11-17T09:39:29.029Z,6.97
2023-11-17T09:40:28.003Z,7.01
2023-11-17T09:41:27.979Z,6.98
2023-11-17T09:42:27.989Z,7.12
2023-11-17T09:43:28.012Z,7.32
2023-11-17T09:44:27.962Z,7.62
2023-11-17T09:45:28.100Z,7.96
2023-11-17T09:46:27.975Z,8.29
2023-11-17T09:47:28.001Z,8.62
2023-11-17T10:03:30.693Z,8.79
2023-11-17T10:04:30.554Z,8.73
2023-11-17T10:05:30.516Z,8.66
2023-11-17T10:06:30.498Z,8.71
2023-11-17T10:07:30.569Z,8.83
2023-11-17T10:08:30.487Z,8.90
2023-11-17T10:09:30.653Z,8.97
2023-11-17T10:10:30.517Z,8.88
2023-11-17T10:11:30.452Z,8.87
2023-11-17T10:12:30.436Z,8.88
2023-11-17T10:13:30.461Z,8.76
2023-11-17T10:14:30.418Z,8.65
2023-11-17T10:15:30.425Z,8.60
2023-11-17T10:16:30.459Z,8.62
2023-11-17T10:17:30.457Z,8.62
2023-11-17T10:18:30.464Z,8.55
2023-11-17T10:19:30.386Z,8.53
2023-11-17T10:20:30.352Z,8.33
2023-11-17T10:21:30.345Z,8.03
2023-11-17T10:22:30.322Z,7.78
2023-11-17T10:23:30.314Z,7.69
2023-11-17T10:24:30.299Z,7.53
2023-11-17T10:25:30.356Z,7.40
2023-11-17T10:26:30.283Z,7.37
2023-11-17T10:27:30.265Z,7.34
2023-11-17T10:28:30.298Z,7.23
2023-11-17T10:29:30.237Z,7.16
2023-11-17T10:30:30.246Z,7.12
2023-11-17T10:31:30.314Z,7.05
2023-11-17T10:32:42.682Z,6.99
2023-11-17T10:33:31.410Z,6.98
2023-11-17T10:34:30.261Z,7.05
2023-11-17T10:35:30.148Z,7.22
2023-11-17T10:36:30.150Z,7.31
2023-11-17T10:37:30.173Z,7.34
2023-11-17T10:38:30.119Z,7.34
2023-11-17T10:39:30.095Z,7.32
2023-11-17T10:40:30.133Z,7.35
2023-11-17T10:41:30.077Z,7.38
2023-11-17T10:42:30.059Z,7.37
2023-11-17T10:43:30.093Z,7.32
2023-11-17T10:44:30.024Z,7.31
2023-11-17T10:45:30.031Z,7.26
2023-11-17T10:46:30.110Z,7.23
2023-11-17T10:47:30.113Z,7.27
2023-11-17T10:48:29.974Z,7.34
2023-11-17T10:49:30.471Z,7.41
2023-11-17T10:50:29.954Z,7.40
2023-11-17T10:51:29.953Z,7.41
2023-11-17T10:52:29.995Z,7.52
2023-11-17T10:53:29.970Z,7.69
2023-11-17T10:54:29.911Z,7.74
2023-11-17T10:55:29.968Z,7.82
2023-11-17T10:56:29.880Z,7.93
2023-11-17T10:57:29.875Z,7.94
2023-11-17T10:58:29.876Z,7.92
2023-11-17T10:59:30.227Z,7.96
2023-11-17T11:00:29.830Z,7.99
2023-11-17T11:01:29.856Z,8.21
2023-11-17T11:02:30.007Z,8.25
2023-11-17T11:03:29.895Z,8.26
2023-11-17T11:04:29.808Z,8.17
2023-11-17T11:05:29.753Z,8.04
2023-11-17T11:06:29.764Z,7.96
2023-11-17T11:07:29.780Z,7.93
2023-11-17T11:08:29.716Z,7.84
2023-11-17T11:09:29.775Z,7.72
2023-11-17T11:10:29.715Z,7.75
2023-11-17T11:11:29.685Z,7.94
2023-11-17T11:12:29.672Z,8.10
2023-11-17T11:13:30.176Z,8.32
2023-11-17T11:14:29.659Z,8.65
2023-11-17T11:15:29.629Z,8.84
2023-11-17T11:16:29.702Z,8.79
2023-11-17T11:17:29.691Z,8.75
2023-11-17T11:18:29.591Z,8.68
2023-11-17T11:19:38.649Z,8.54
2023-11-17T11:20:30.582Z,8.47
2023-11-17T11:21:29.564Z,8.39
2023-11-17T11:22:29.640Z,8.47
2023-11-17T11:23:29.539Z,8.50
2023-11-17T11:24:33.716Z,8.51
2023-11-17T11:25:30.528Z,8.48
2023-11-17T11:26:29.499Z,8.55
2023-11-17T11:27:29.492Z,8.48
2023-11-17T11:28:29.483Z,8.37
2023-11-17T11:29:29.461Z,8.35
2023-11-17T11:30:29.477Z,8.30
2023-11-17T11:31:29.521Z,8.39
2023-11-17T11:32:29.425Z,8.40
2023-11-17T11:33:29.388Z,8.63
2023-11-17T11:34:29.413Z,8.81
2023-11-17T11:35:29.378Z,9.38
2023-11-17T11:36:29.369Z,9.81
2023-11-17T11:37:29.398Z,10.15
2023-11-17T11:38:29.329Z,10.30
2023-11-17T11:39:29.324Z,10.52
2023-11-17T11:40:29.357Z,10.68
2023-11-17T11:41:29.303Z,10.83
2023-11-17T11:42:29.269Z,11.09
2023-11-17T11:43:29.462Z,11.28
2023-11-17T11:44:29.263Z,11.41
2023-11-17T11:45:29.258Z,11.78
2023-11-17T11:46:29.336Z,11.89
2023-11-17T11:47:29.307Z,11.97
2023-11-17T11:48:29.212Z,12.08
2023-11-17T11:49:29.290Z,12.41
2023-11-17T11:50:29.171Z,12.64
2023-11-17T11:51:29.166Z,12.92
2023-11-17T11:52:29.174Z,12.67
2023-11-17T11:53:29.148Z,12.79
2023-11-17T11:54:29.136Z,13.00
2023-11-17T11:55:29.123Z,13.04
2023-11-17T11:56:29.092Z,13.24
2023-11-17T11:57:29.951Z,13.37
2023-11-17T11:58:29.232Z,13.18
2023-11-17T11:59:29.068Z,13.06
2023-11-17T12:00:29.038Z,13.25
2023-11-17T12:01:29.053Z,13.36
2023-11-17T12:02:29.051Z,13.44
2023-11-17T12:03:29.087Z,13.59
2023-11-17T12:04:29.039Z,13.96
2023-11-17T12:05:29.037Z,14.17
2023-11-17T12:06:28.978Z,14.47
2023-11-17T12:07:28.996Z,14.69
2023-11-17T12:08:29.106Z,14.67
2023-11-17T12:09:28.932Z,14.17
2023-11-17T12:10:28.963Z,14.14
2023-11-17T12:11:28.906Z,14.44
2023-11-17T12:12:28.904Z,14.44
2023-11-17T12:13:28.935Z,14.29
2023-11-17T12:14:28.877Z,14.13
2023-11-17T12:15:28.859Z,14.20
2023-11-17T12:16:28.922Z,14.13
2023-11-17T12:17:28.877Z,14.02
2023-11-17T12:18:28.809Z,13.87
2023-11-17T12:19:28.842Z,13.74
2023-11-17T12:20:28.810Z,13.65
2023-11-17T12:21:28.774Z,13.38
2023-11-17T12:22:28.776Z,12.88
2023-11-17T12:23:29.457Z,12.52
2023-11-17T12:24:28.772Z,12.19
2023-11-17T12:25:28.786Z,12.04
2023-11-17T12:26:28.742Z,11.89
2023-11-17T12:27:28.709Z,11.74
2023-11-17T12:28:28.751Z,11.57
2023-11-17T12:29:28.690Z,11.54
2023-11-17T12:30:28.807Z,11.36
2023-11-17T12:31:28.706Z,11.20
2023-11-17T12:32:28.769Z,11.10
2023-11-17T12:33:28.715Z,11.31
2023-11-17T12:34:28.648Z,11.36
2023-11-17T12:35:28.980Z,11.39
2023-11-17T12:36:28.588Z,11.16
2023-11-17T12:37:28.580Z,11.06
2023-11-17T12:38:28.550Z,10.86
2023-11-17T12:39:28.583Z,10.63
2023-11-17T12:40:28.573Z,10.43
2023-11-17T12:41:29.982Z,10.28
2023-11-17T12:42:28.506Z,10.24
2023-11-17T12:43:28.522Z,10.26
2023-11-17T12:44:28.500Z,10.43
2023-11-17T12:45:28.547Z,10.62
2023-11-17T12:46:28.595Z,10.86
2023-11-17T12:47:32.269Z,10.89
2023-11-17T12:48:28.496Z,10.80
2023-11-17T12:49:28.439Z,10.95
2023-11-17T12:50:28.433Z,11.01
2023-11-17T12:51:28.432Z,11.01
2023-11-17T12:52:28.435Z,11.07
2023-11-17T12:53:35.849Z,11.20
2023-11-17T12:54:29.359Z,11.35
2023-11-17T12:55:28.374Z,11.57
2023-11-17T12:56:28.332Z,11.64
2023-11-17T12:57:28.319Z,11.68
2023-11-17T12:58:28.326Z,11.70
2023-11-17T12:59:28.608Z,11.53
2023-11-17T13:00:28.258Z,11.36
2023-11-17T13:01:28.359Z,11.06
2023-11-17T13:02:28.321Z,10.91
2023-11-17T13:03:28.302Z,10.80
2023-11-17T13:04:28.291Z,10.83
2023-11-17T13:05:28.561Z,10.86
2023-11-17T13:06:28.297Z,10.80
2023-11-17T13:07:28.240Z,10.65
2023-11-17T13:08:28.159Z,10.42
2023-11-17T13:09:28.185Z,10.33
2023-11-17T13:10:28.178Z,10.24
2023-11-17T13:11:28.684Z,10.19
2023-11-17T13:12:28.140Z,10.18
2023-11-17T13:13:28.173Z,10.10
2023-11-17T13:14:28.094Z,10.09
2023-11-17T13:15:28.481Z,10.10
2023-11-17T13:16:28.104Z,10.17
2023-11-17T13:17:28.796Z,10.21
2023-11-17T13:18:28.024Z,10.24
2023-11-17T13:19:28.045Z,10.25
2023-11-17T13:20:27.998Z,10.24
2023-11-17T13:21:28.063Z,10.15
2023-11-17T13:22:28.008Z,10.12
2023-11-17T13:23:28.926Z,10.14
2023-11-17T13:24:27.954Z,10.15
2023-11-17T13:25:28.172Z,10.12
2023-11-17T13:26:27.933Z,10.04
2023-11-17T13:27:27.983Z,9.96
2023-11-17T13:28:27.928Z,9.83
2023-11-17T13:29:28.539Z,9.78
2023-11-17T13:30:27.908Z,9.71
2023-11-17T13:31:27.913Z,9.66
2023-11-17T13:32:27.927Z,9.57
2023-11-17T13:33:27.882Z,9.50
2023-11-17T13:34:27.880Z,9.45
2023-11-17T13:35:29.133Z,9.40
2023-11-17T13:36:27.851Z,9.32
2023-11-17T13:37:27.818Z,9.27
2023-11-17T13:38:27.799Z,9.20
2023-11-17T13:39:27.814Z,9.04
2023-11-17T13:40:27.832Z,8.93
2023-11-17T13:41:28.429Z,8.81
2023-11-17T13:42:27.728Z,8.76